Terminal Aerodrome Forecast
Issued by NWS

Home | Current Version | Previous Version | Graphics & Text | Print | Product List | Glossary On
Versions: 1 2 3 4 5 6 7 8 9 10 11 12 13 14 15 16 17 18 19 20 21 22 23 24 25 26 27 28 29 30 31 32
000
FTUS43 KPAH 161500 AAA
TAFOWB
TAF AMD
KOWB 161519Z 1615/1712 36008KT P6SM SCT008 OVC015
      TEMPO 1615/1619 BKN008
     FM161900 02005KT P6SM BKN025
     FM170100 01002KT P6SM SKC
     FM170900 00000KT 2SM BR FEW010=

USA.gov is the U.S. government's official web portal to all federal, state and local government web resources and services.